sensor_id;sensor_type;location;lat;lon;timestamp;P1;durP1;ratioP1;P2;durP2;ratioP2
3924;SDS011;1977;52.274;10.518;2024-03-08T00:01:43;23.17;;;16.80;;
3924;SDS011;1977;52.274;10.518;2024-03-08T00:04:11;25.90;;;16.57;;
3924;SDS011;1977;52.274;10.518;2024-03-08T00:06:39;31.03;;;17.03;;
3924;SDS011;1977;52.274;10.518;2024-03-08T00:09:06;27.40;;;16.73;;
3924;SDS011;1977;52.274;10.518;2024-03-08T00:11:33;26.03;;;17.13;;
3924;SDS011;1977;52.274;10.518;2024-03-08T00:14:00;25.80;;;17.53;;
3924;SDS011;1977;52.274;10.518;2024-03-08T00:16:31;29.23;;;17.07;;
3924;SDS011;1977;52.274;10.518;2024-03-08T00:18:58;25.30;;;16.10;;
3924;SDS011;1977;52.274;10.518;2024-03-08T00:21:25;28.10;;;17.77;;
3924;SDS011;1977;52.274;10.518;2024-03-08T00:23:54;24.50;;;16.53;;
3924;SDS011;1977;52.274;10.518;2024-03-08T00:26:21;28.93;;;17.97;;
3924;SDS011;1977;52.274;10.518;2024-03-08T00:28:48;26.17;;;17.50;;
3924;SDS011;1977;52.274;10.518;2024-03-08T00:31:14;27.63;;;17.57;;
3924;SDS011;1977;52.274;10.518;2024-03-08T00:33:42;25.73;;;17.33;;
3924;SDS011;1977;52.274;10.518;2024-03-08T00:36:08;30.23;;;19.37;;
3924;SDS011;1977;52.274;10.518;2024-03-08T00:38:35;27.40;;;15.93;;
3924;SDS011;1977;52.274;10.518;2024-03-08T00:41:03;27.97;;;17.80;;
3924;SDS011;1977;52.274;10.518;2024-03-08T00:43:30;29.13;;;18.50;;
3924;SDS011;1977;52.274;10.518;2024-03-08T00:45:57;25.13;;;16.67;;
3924;SDS011;1977;52.274;10.518;2024-03-08T00:48:23;24.53;;;17.73;;
3924;SDS011;1977;52.274;10.518;2024-03-08T00:50:50;23.97;;;17.30;;
3924;SDS011;1977;52.274;10.518;2024-03-08T00:53:17;28.47;;;17.73;;
3924;SDS011;1977;52.274;10.518;2024-03-08T00:55:44;22.87;;;17.00;;
3924;SDS011;1977;52.274;10.518;2024-03-08T00:58:12;23.10;;;16.10;;
3924;SDS011;1977;52.274;10.518;2024-03-08T01:00:39;29.60;;;18.43;;
3924;SDS011;1977;52.274;10.518;2024-03-08T01:03:06;26.20;;;17.63;;
3924;SDS011;1977;52.274;10.518;2024-03-08T01:05:33;26.93;;;17.30;;
3924;SDS011;1977;52.274;10.518;2024-03-08T01:08:00;24.70;;;17.00;;
3924;SDS011;1977;52.274;10.518;2024-03-08T01:10:28;23.17;;;17.17;;
3924;SDS011;1977;52.274;10.518;2024-03-08T01:12:54;28.40;;;17.70;;
3924;SDS011;1977;52.274;10.518;2024-03-08T01:15:23;26.40;;;17.27;;
3924;SDS011;1977;52.274;10.518;2024-03-08T01:17:50;24.17;;;15.87;;
3924;SDS011;1977;52.274;10.518;2024-03-08T01:20:17;25.03;;;16.33;;
3924;SDS011;1977;52.274;10.518;2024-03-08T01:22:43;23.87;;;16.73;;
3924;SDS011;1977;52.274;10.518;2024-03-08T01:25:10;24.60;;;17.17;;
3924;SDS011;1977;52.274;10.518;2024-03-08T01:27:37;28.10;;;17.23;;
3924;SDS011;1977;52.274;10.518;2024-03-08T01:30:04;31.43;;;18.53;;
3924;SDS011;1977;52.274;10.518;2024-03-08T01:32:34;26.83;;;17.67;;
3924;SDS011;1977;52.274;10.518;2024-03-08T01:35:01;26.87;;;17.63;;
3924;SDS011;1977;52.274;10.518;2024-03-08T01:37:28;25.07;;;16.87;;
3924;SDS011;1977;52.274;10.518;2024-03-08T01:39:55;25.60;;;16.90;;
3924;SDS011;1977;52.274;10.518;2024-03-08T01:42:22;29.43;;;16.93;;
3924;SDS011;1977;52.274;10.518;2024-03-08T01:44:49;27.43;;;16.37;;
3924;SDS011;1977;52.274;10.518;2024-03-08T01:47:16;30.67;;;18.90;;
3924;SDS011;1977;52.274;10.518;2024-03-08T01:49:49;24.83;;;17.20;;
3924;SDS011;1977;52.274;10.518;2024-03-08T01:52:16;27.40;;;18.33;;
3924;SDS011;1977;52.274;10.518;2024-03-08T01:54:47;27.70;;;16.87;;
3924;SDS011;1977;52.274;10.518;2024-03-08T01:57:14;25.87;;;18.50;;
3924;SDS011;1977;52.274;10.518;2024-03-08T01:59:41;24.50;;;17.40;;
3924;SDS011;1977;52.274;10.518;2024-03-08T02:02:08;28.33;;;18.50;;
3924;SDS011;1977;52.274;10.518;2024-03-08T02:04:38;27.27;;;16.87;;
3924;SDS011;1977;52.274;10.518;2024-03-08T02:07:07;30.70;;;17.53;;
3924;SDS011;1977;52.274;10.518;2024-03-08T02:09:35;24.67;;;16.63;;
3924;SDS011;1977;52.274;10.518;2024-03-08T02:12:02;24.53;;;17.03;;
3924;SDS011;1977;52.274;10.518;2024-03-08T02:14:29;27.93;;;18.00;;
3924;SDS011;1977;52.274;10.518;2024-03-08T02:16:59;28.03;;;18.53;;
3924;SDS011;1977;52.274;10.518;2024-03-08T02:19:26;26.10;;;18.47;;
3924;SDS011;1977;52.274;10.518;2024-03-08T02:21:54;24.60;;;17.07;;
3924;SDS011;1977;52.274;10.518;2024-03-08T02:24:22;27.07;;;18.13;;
3924;SDS011;1977;52.274;10.518;2024-03-08T02:26:50;29.10;;;18.87;;
3924;SDS011;1977;52.274;10.518;2024-03-08T02:29:18;32.13;;;19.00;;
3924;SDS011;1977;52.274;10.518;2024-03-08T02:31:46;25.07;;;17.00;;
3924;SDS011;1977;52.274;10.518;2024-03-08T02:34:13;22.00;;;17.53;;
3924;SDS011;1977;52.274;10.518;2024-03-08T02:36:40;24.07;;;17.27;;
3924;SDS011;1977;52.274;10.518;2024-03-08T02:39:08;25.50;;;17.53;;
3924;SDS011;1977;52.274;10.518;2024-03-08T02:41:35;30.93;;;18.17;;
3924;SDS011;1977;52.274;10.518;2024-03-08T02:44:02;28.50;;;18.13;;
3924;SDS011;1977;52.274;10.518;2024-03-08T02:46:29;25.33;;;18.03;;
3924;SDS011;1977;52.274;10.518;2024-03-08T02:48:56;27.00;;;18.30;;
3924;SDS011;1977;52.274;10.518;2024-03-08T02:51:23;26.90;;;17.83;;
3924;SDS011;1977;52.274;10.518;2024-03-08T02:53:51;31.10;;;19.20;;
3924;SDS011;1977;52.274;10.518;2024-03-08T02:56:19;25.63;;;17.30;;
3924;SDS011;1977;52.274;10.518;2024-03-08T02:58:47;29.50;;;17.43;;
3924;SDS011;1977;52.274;10.518;2024-03-08T03:01:13;31.10;;;19.50;;
3924;SDS011;1977;52.274;10.518;2024-03-08T03:03:40;25.43;;;16.93;;
3924;SDS011;1977;52.274;10.518;2024-03-08T03:06:07;26.17;;;16.97;;
3924;SDS011;1977;52.274;10.518;2024-03-08T03:08:35;26.93;;;17.80;;
3924;SDS011;1977;52.274;10.518;2024-03-08T03:11:02;31.53;;;17.17;;
3924;SDS011;1977;52.274;10.518;2024-03-08T03:13:30;26.47;;;18.07;;
3924;SDS011;1977;52.274;10.518;2024-03-08T03:15:58;28.60;;;18.40;;
3924;SDS011;1977;52.274;10.518;2024-03-08T03:18:25;30.20;;;18.17;;
3924;SDS011;1977;52.274;10.518;2024-03-08T03:20:52;31.23;;;18.47;;
3924;SDS011;1977;52.274;10.518;2024-03-08T03:23:19;26.70;;;18.43;;
3924;SDS011;1977;52.274;10.518;2024-03-08T03:25:46;32.03;;;18.13;;
3924;SDS011;1977;52.274;10.518;2024-03-08T03:28:13;29.77;;;18.67;;
3924;SDS011;1977;52.274;10.518;2024-03-08T03:30:44;29.30;;;17.30;;
3924;SDS011;1977;52.274;10.518;2024-03-08T03:33:11;32.10;;;19.37;;
3924;SDS011;1977;52.274;10.518;2024-03-08T03:35:40;27.30;;;17.93;;
3924;SDS011;1977;52.274;10.518;2024-03-08T03:38:08;28.23;;;18.87;;
3924;SDS011;1977;52.274;10.518;2024-03-08T03:40:35;26.90;;;17.80;;
3924;SDS011;1977;52.274;10.518;2024-03-08T03:43:02;24.83;;;17.87;;
3924;SDS011;1977;52.274;10.518;2024-03-08T03:45:29;28.57;;;17.80;;
3924;SDS011;1977;52.274;10.518;2024-03-08T03:48:01;27.30;;;17.40;;
3924;SDS011;1977;52.274;10.518;2024-03-08T03:50:28;27.57;;;18.30;;
3924;SDS011;1977;52.274;10.518;2024-03-08T03:52:55;28.07;;;17.97;;
3924;SDS011;1977;52.274;10.518;2024-03-08T03:55:22;28.57;;;19.20;;
3924;SDS011;1977;52.274;10.518;2024-03-08T03:57:49;27.43;;;18.73;;
3924;SDS011;1977;52.274;10.518;2024-03-08T04:00:16;26.93;;;17.93;;
3924;SDS011;1977;52.274;10.518;2024-03-08T04:02:43;32.47;;;18.90;;
3924;SDS011;1977;52.274;10.518;2024-03-08T04:05:13;31.83;;;19.93;;
3924;SDS011;1977;52.274;10.518;2024-03-08T04:07:40;29.83;;;18.30;;
3924;SDS011;1977;52.274;10.518;2024-03-08T04:10:07;29.13;;;17.73;;
3924;SDS011;1977;52.274;10.518;2024-03-08T04:12:36;34.93;;;19.30;;
3924;SDS011;1977;52.274;10.518;2024-03-08T04:15:04;27.33;;;18.83;;
3924;SDS011;1977;52.274;10.518;2024-03-08T04:17:32;31.70;;;20.17;;
3924;SDS011;1977;52.274;10.518;2024-03-08T04:20:00;29.00;;;18.90;;
3924;SDS011;1977;52.274;10.518;2024-03-08T04:22:31;31.00;;;20.00;;
3924;SDS011;1977;52.274;10.518;2024-03-08T04:25:00;31.57;;;18.30;;
3924;SDS011;1977;52.274;10.518;2024-03-08T04:27:27;29.83;;;18.57;;
3924;SDS011;1977;52.274;10.518;2024-03-08T04:29:54;30.40;;;20.00;;
3924;SDS011;1977;52.274;10.518;2024-03-08T04:32:22;31.53;;;19.40;;
3924;SDS011;1977;52.274;10.518;2024-03-08T04:34:48;29.53;;;20.43;;
3924;SDS011;1977;52.274;10.518;2024-03-08T04:37:15;29.13;;;20.00;;
3924;SDS011;1977;52.274;10.518;2024-03-08T04:39:44;28.30;;;19.10;;
3924;SDS011;1977;52.274;10.518;2024-03-08T04:42:11;32.77;;;19.93;;
3924;SDS011;1977;52.274;10.518;2024-03-08T04:44:39;28.80;;;19.10;;
3924;SDS011;1977;52.274;10.518;2024-03-08T04:47:06;30.90;;;20.03;;
3924;SDS011;1977;52.274;10.518;2024-03-08T04:49:33;29.50;;;19.30;;
3924;SDS011;1977;52.274;10.518;2024-03-08T04:52:00;31.97;;;18.33;;
3924;SDS011;1977;52.274;10.518;2024-03-08T04:54:28;29.33;;;19.67;;
3924;SDS011;1977;52.274;10.518;2024-03-08T04:56:56;30.10;;;19.53;;
3924;SDS011;1977;52.274;10.518;2024-03-08T04:59:25;29.17;;;18.50;;
3924;SDS011;1977;52.274;10.518;2024-03-08T05:01:51;29.37;;;18.90;;
3924;SDS011;1977;52.274;10.518;2024-03-08T05:04:18;26.77;;;18.67;;
3924;SDS011;1977;52.274;10.518;2024-03-08T05:06:45;28.20;;;19.93;;
3924;SDS011;1977;52.274;10.518;2024-03-08T05:09:12;26.73;;;18.63;;
3924;SDS011;1977;52.274;10.518;2024-03-08T05:11:39;31.63;;;19.37;;
3924;SDS011;1977;52.274;10.518;2024-03-08T05:14:07;34.57;;;20.90;;
3924;SDS011;1977;52.274;10.518;2024-03-08T05:16:34;29.93;;;19.90;;
3924;SDS011;1977;52.274;10.518;2024-03-08T05:19:01;40.47;;;24.23;;
3924;SDS011;1977;52.274;10.518;2024-03-08T05:21:28;34.17;;;23.00;;
3924;SDS011;1977;52.274;10.518;2024-03-08T05:23:55;28.23;;;18.37;;
3924;SDS011;1977;52.274;10.518;2024-03-08T05:26:21;35.00;;;20.33;;
3924;SDS011;1977;52.274;10.518;2024-03-08T05:28:48;34.10;;;20.90;;
3924;SDS011;1977;52.274;10.518;2024-03-08T05:31:19;28.23;;;19.30;;
3924;SDS011;1977;52.274;10.518;2024-03-08T05:33:47;29.70;;;19.73;;
3924;SDS011;1977;52.274;10.518;2024-03-08T05:36:14;29.90;;;19.87;;
3924;SDS011;1977;52.274;10.518;2024-03-08T05:38:41;33.70;;;20.17;;
3924;SDS011;1977;52.274;10.518;2024-03-08T05:41:08;27.27;;;18.53;;
3924;SDS011;1977;52.274;10.518;2024-03-08T05:43:36;31.10;;;22.00;;
3924;SDS011;1977;52.274;10.518;2024-03-08T05:46:03;30.07;;;18.97;;
3924;SDS011;1977;52.274;10.518;2024-03-08T05:48:32;30.20;;;19.77;;
3924;SDS011;1977;52.274;10.518;2024-03-08T05:50:59;32.80;;;19.87;;
3924;SDS011;1977;52.274;10.518;2024-03-08T05:53:27;30.73;;;20.63;;
3924;SDS011;1977;52.274;10.518;2024-03-08T05:55:56;34.77;;;21.87;;
3924;SDS011;1977;52.274;10.518;2024-03-08T05:58:23;36.20;;;21.10;;
3924;SDS011;1977;52.274;10.518;2024-03-08T06:00:50;30.63;;;18.90;;
3924;SDS011;1977;52.274;10.518;2024-03-08T06:03:17;33.57;;;19.83;;
3924;SDS011;1977;52.274;10.518;2024-03-08T06:05:47;33.37;;;20.97;;
3924;SDS011;1977;52.274;10.518;2024-03-08T06:08:14;39.00;;;21.10;;
3924;SDS011;1977;52.274;10.518;2024-03-08T06:10:41;32.63;;;21.30;;
3924;SDS011;1977;52.274;10.518;2024-03-08T06:13:08;34.37;;;21.77;;
3924;SDS011;1977;52.274;10.518;2024-03-08T06:15:37;29.80;;;19.17;;
3924;SDS011;1977;52.274;10.518;2024-03-08T06:18:04;28.50;;;19.40;;
3924;SDS011;1977;52.274;10.518;2024-03-08T06:20:31;30.83;;;19.60;;
3924;SDS011;1977;52.274;10.518;2024-03-08T06:22:59;37.50;;;21.37;;
3924;SDS011;1977;52.274;10.518;2024-03-08T06:25:26;32.83;;;20.53;;
3924;SDS011;1977;52.274;10.518;2024-03-08T06:27:53;34.07;;;21.40;;
3924;SDS011;1977;52.274;10.518;2024-03-08T06:30:19;32.17;;;20.07;;
3924;SDS011;1977;52.274;10.518;2024-03-08T06:32:47;33.00;;;21.43;;
3924;SDS011;1977;52.274;10.518;2024-03-08T06:35:14;37.17;;;22.40;;
3924;SDS011;1977;52.274;10.518;2024-03-08T06:37:41;31.60;;;20.10;;
3924;SDS011;1977;52.274;10.518;2024-03-08T06:40:11;34.13;;;22.53;;
3924;SDS011;1977;52.274;10.518;2024-03-08T06:42:39;31.07;;;20.80;;
3924;SDS011;1977;52.274;10.518;2024-03-08T06:45:06;35.20;;;21.50;;
3924;SDS011;1977;52.274;10.518;2024-03-08T06:47:35;37.40;;;21.93;;
3924;SDS011;1977;52.274;10.518;2024-03-08T06:50:02;30.60;;;19.93;;
3924;SDS011;1977;52.274;10.518;2024-03-08T06:52:30;34.07;;;21.60;;
3924;SDS011;1977;52.274;10.518;2024-03-08T06:54:58;32.87;;;20.60;;
3924;SDS011;1977;52.274;10.518;2024-03-08T06:57:28;33.60;;;20.27;;
3924;SDS011;1977;52.274;10.518;2024-03-08T06:59:55;33.70;;;21.60;;
3924;SDS011;1977;52.274;10.518;2024-03-08T07:02:22;32.83;;;20.67;;
3924;SDS011;1977;52.274;10.518;2024-03-08T07:04:50;28.70;;;19.63;;
3924;SDS011;1977;52.274;10.518;2024-03-08T07:07:18;34.27;;;21.20;;
3924;SDS011;1977;52.274;10.518;2024-03-08T07:09:45;36.60;;;21.80;;
3924;SDS011;1977;52.274;10.518;2024-03-08T07:12:13;29.57;;;20.57;;
3924;SDS011;1977;52.274;10.518;2024-03-08T07:14:41;33.13;;;20.20;;
3924;SDS011;1977;52.274;10.518;2024-03-08T07:17:10;31.50;;;20.80;;
3924;SDS011;1977;52.274;10.518;2024-03-08T07:19:37;32.37;;;21.73;;
3924;SDS011;1977;52.274;10.518;2024-03-08T07:22:04;31.60;;;20.90;;
3924;SDS011;1977;52.274;10.518;2024-03-08T07:24:34;36.10;;;21.63;;
3924;SDS011;1977;52.274;10.518;2024-03-08T07:27:15;34.67;;;21.43;;
3924;SDS011;1977;52.274;10.518;2024-03-08T07:29:44;45.13;;;21.80;;
3924;SDS011;1977;52.274;10.518;2024-03-08T07:32:11;35.83;;;21.90;;
3924;SDS011;1977;52.274;10.518;2024-03-08T07:34:46;37.37;;;21.70;;
3924;SDS011;1977;52.274;10.518;2024-03-08T07:37:14;32.33;;;21.47;;
3924;SDS011;1977;52.274;10.518;2024-03-08T07:39:41;34.87;;;22.07;;
3924;SDS011;1977;52.274;10.518;2024-03-08T07:42:08;34.40;;;21.57;;
3924;SDS011;1977;52.274;10.518;2024-03-08T07:44:35;34.77;;;21.90;;
3924;SDS011;1977;52.274;10.518;2024-03-08T07:47:04;31.10;;;20.50;;
3924;SDS011;1977;52.274;10.518;2024-03-08T07:49:34;35.07;;;23.07;;
3924;SDS011;1977;52.274;10.518;2024-03-08T07:52:02;33.23;;;21.33;;
3924;SDS011;1977;52.274;10.518;2024-03-08T07:54:32;33.87;;;21.53;;
3924;SDS011;1977;52.274;10.518;2024-03-08T07:56:59;32.27;;;22.03;;
3924;SDS011;1977;52.274;10.518;2024-03-08T07:59:27;32.27;;;21.70;;
3924;SDS011;1977;52.274;10.518;2024-03-08T08:01:54;36.73;;;22.83;;
3924;SDS011;1977;52.274;10.518;2024-03-08T08:04:22;34.77;;;20.03;;
3924;SDS011;1977;52.274;10.518;2024-03-08T08:06:49;33.80;;;21.93;;
3924;SDS011;1977;52.274;10.518;2024-03-08T08:09:16;33.10;;;22.50;;
3924;SDS011;1977;52.274;10.518;2024-03-08T08:11:53;34.23;;;22.67;;
3924;SDS011;1977;52.274;10.518;2024-03-08T08:14:20;27.73;;;20.13;;
3924;SDS011;1977;52.274;10.518;2024-03-08T08:16:47;29.30;;;20.77;;
3924;SDS011;1977;52.274;10.518;2024-03-08T08:19:16;32.80;;;20.83;;
3924;SDS011;1977;52.274;10.518;2024-03-08T08:21:44;30.80;;;22.23;;
3924;SDS011;1977;52.274;10.518;2024-03-08T08:24:11;31.87;;;22.47;;
3924;SDS011;1977;52.274;10.518;2024-03-08T08:26:38;34.47;;;23.80;;
3924;SDS011;1977;52.274;10.518;2024-03-08T08:29:05;31.40;;;22.30;;
3924;SDS011;1977;52.274;10.518;2024-03-08T08:31:32;31.70;;;22.53;;
3924;SDS011;1977;52.274;10.518;2024-03-08T08:33:59;33.67;;;22.03;;
3924;SDS011;1977;52.274;10.518;2024-03-08T08:36:26;35.80;;;22.27;;
3924;SDS011;1977;52.274;10.518;2024-03-08T08:38:56;32.70;;;21.40;;
3924;SDS011;1977;52.274;10.518;2024-03-08T08:41:23;30.60;;;21.67;;
3924;SDS011;1977;52.274;10.518;2024-03-08T08:43:50;32.10;;;22.33;;
3924;SDS011;1977;52.274;10.518;2024-03-08T08:46:17;36.77;;;23.70;;
3924;SDS011;1977;52.274;10.518;2024-03-08T08:48:44;35.57;;;23.67;;
3924;SDS011;1977;52.274;10.518;2024-03-08T08:51:12;40.40;;;23.00;;
3924;SDS011;1977;52.274;10.518;2024-03-08T08:53:38;29.43;;;20.70;;
3924;SDS011;1977;52.274;10.518;2024-03-08T08:56:09;33.10;;;22.27;;
3924;SDS011;1977;52.274;10.518;2024-03-08T08:58:38;31.73;;;21.83;;
3924;SDS011;1977;52.274;10.518;2024-03-08T09:01:04;32.87;;;23.27;;
3924;SDS011;1977;52.274;10.518;2024-03-08T09:03:32;32.57;;;22.40;;
3924;SDS011;1977;52.274;10.518;2024-03-08T09:05:59;31.03;;;20.90;;
3924;SDS011;1977;52.274;10.518;2024-03-08T09:08:27;30.13;;;21.60;;
3924;SDS011;1977;52.274;10.518;2024-03-08T09:10:54;31.43;;;21.70;;
3924;SDS011;1977;52.274;10.518;2024-03-08T09:13:22;34.20;;;21.80;;
3924;SDS011;1977;52.274;10.518;2024-03-08T09:15:49;31.50;;;22.33;;
3924;SDS011;1977;52.274;10.518;2024-03-08T09:18:17;35.53;;;23.00;;
3924;SDS011;1977;52.274;10.518;2024-03-08T09:20:45;33.57;;;23.40;;
3924;SDS011;1977;52.274;10.518;2024-03-08T09:23:12;31.60;;;22.80;;
3924;SDS011;1977;52.274;10.518;2024-03-08T09:25:40;29.50;;;21.50;;
3924;SDS011;1977;52.274;10.518;2024-03-08T09:28:07;31.10;;;22.03;;
3924;SDS011;1977;52.274;10.518;2024-03-08T09:30:35;33.70;;;22.60;;
3924;SDS011;1977;52.274;10.518;2024-03-08T09:33:02;31.40;;;21.90;;
3924;SDS011;1977;52.274;10.518;2024-03-08T09:35:29;32.47;;;23.23;;
3924;SDS011;1977;52.274;10.518;2024-03-08T09:37:56;33.47;;;23.97;;
3924;SDS011;1977;52.274;10.518;2024-03-08T09:40:22;35.30;;;23.63;;
3924;SDS011;1977;52.274;10.518;2024-03-08T09:42:50;31.00;;;22.83;;
3924;SDS011;1977;52.274;10.518;2024-03-08T09:45:19;31.03;;;24.27;;
3924;SDS011;1977;52.274;10.518;2024-03-08T09:47:49;32.50;;;23.50;;
3924;SDS011;1977;52.274;10.518;2024-03-08T09:50:16;32.67;;;22.30;;
3924;SDS011;1977;52.274;10.518;2024-03-08T09:52:43;34.80;;;22.70;;
3924;SDS011;1977;52.274;10.518;2024-03-08T09:55:14;33.20;;;23.90;;
3924;SDS011;1977;52.274;10.518;2024-03-08T09:57:42;32.60;;;24.10;;
3924;SDS011;1977;52.274;10.518;2024-03-08T10:00:32;32.33;;;25.30;;
3924;SDS011;1977;52.274;10.518;2024-03-08T10:03:01;34.50;;;23.70;;
3924;SDS011;1977;52.274;10.518;2024-03-08T10:05:30;34.30;;;24.10;;
3924;SDS011;1977;52.274;10.518;2024-03-08T10:07:57;33.87;;;24.40;;
3924;SDS011;1977;52.274;10.518;2024-03-08T10:10:24;35.73;;;25.30;;
3924;SDS011;1977;52.274;10.518;2024-03-08T10:12:51;35.67;;;26.50;;
3924;SDS011;1977;52.274;10.518;2024-03-08T10:15:18;37.40;;;25.33;;
3924;SDS011;1977;52.274;10.518;2024-03-08T10:17:45;37.33;;;26.07;;
3924;SDS011;1977;52.274;10.518;2024-03-08T10:20:16;39.27;;;26.70;;
3924;SDS011;1977;52.274;10.518;2024-03-08T10:22:44;35.67;;;25.80;;
3924;SDS011;1977;52.274;10.518;2024-03-08T10:25:11;33.93;;;24.20;;
3924;SDS011;1977;52.274;10.518;2024-03-08T10:27:39;35.50;;;25.93;;
3924;SDS011;1977;52.274;10.518;2024-03-08T10:30:06;32.87;;;24.03;;
3924;SDS011;1977;52.274;10.518;2024-03-08T10:32:37;41.77;;;25.17;;
3924;SDS011;1977;52.274;10.518;2024-03-08T10:35:05;32.90;;;24.07;;
3924;SDS011;1977;52.274;10.518;2024-03-08T10:37:34;35.63;;;25.27;;
3924;SDS011;1977;52.274;10.518;2024-03-08T10:40:10;39.83;;;25.23;;
3924;SDS011;1977;52.274;10.518;2024-03-08T10:42:47;36.40;;;24.50;;
3924;SDS011;1977;52.274;10.518;2024-03-08T10:45:21;33.67;;;23.60;;
3924;SDS011;1977;52.274;10.518;2024-03-08T10:48:09;38.60;;;25.03;;
3924;SDS011;1977;52.274;10.518;2024-03-08T10:50:43;35.07;;;24.47;;
3924;SDS011;1977;52.274;10.518;2024-03-08T10:53:13;34.17;;;24.07;;
3924;SDS011;1977;52.274;10.518;2024-03-08T10:55:40;30.50;;;23.43;;
3924;SDS011;1977;52.274;10.518;2024-03-08T10:58:08;34.57;;;23.37;;
3924;SDS011;1977;52.274;10.518;2024-03-08T11:00:35;32.67;;;23.13;;
3924;SDS011;1977;52.274;10.518;2024-03-08T11:03:02;29.90;;;22.00;;
3924;SDS011;1977;52.274;10.518;2024-03-08T11:05:36;33.30;;;23.77;;
3924;SDS011;1977;52.274;10.518;2024-03-08T11:08:05;31.57;;;23.83;;
3924;SDS011;1977;52.274;10.518;2024-03-08T11:10:47;31.50;;;24.13;;
3924;SDS011;1977;52.274;10.518;2024-03-08T11:13:32;30.27;;;22.80;;
3924;SDS011;1977;52.274;10.518;2024-03-08T11:15:59;32.30;;;23.30;;
3924;SDS011;1977;52.274;10.518;2024-03-08T11:18:26;31.57;;;22.37;;
3924;SDS011;1977;52.274;10.518;2024-03-08T11:20:53;35.70;;;23.53;;
3924;SDS011;1977;52.274;10.518;2024-03-08T11:23:23;32.07;;;23.87;;
3924;SDS011;1977;52.274;10.518;2024-03-08T11:25:51;34.63;;;23.53;;
3924;SDS011;1977;52.274;10.518;2024-03-08T11:28:19;34.40;;;23.00;;
3924;SDS011;1977;52.274;10.518;2024-03-08T11:30:47;29.57;;;22.00;;
3924;SDS011;1977;52.274;10.518;2024-03-08T11:33:29;31.20;;;22.70;;
3924;SDS011;1977;52.274;10.518;2024-03-08T11:35:57;30.93;;;23.10;;
3924;SDS011;1977;52.274;10.518;2024-03-08T11:38:31;29.83;;;22.83;;
3924;SDS011;1977;52.274;10.518;2024-03-08T11:40:58;29.23;;;21.67;;
3924;SDS011;1977;52.274;10.518;2024-03-08T11:43:25;31.57;;;21.50;;
3924;SDS011;1977;52.274;10.518;2024-03-08T11:45:59;33.17;;;22.00;;
3924;SDS011;1977;52.274;10.518;2024-03-08T11:48:34;30.20;;;21.20;;
3924;SDS011;1977;52.274;10.518;2024-03-08T11:51:01;32.33;;;22.90;;
3924;SDS011;1977;52.274;10.518;2024-03-08T11:53:30;30.67;;;21.13;;
3924;SDS011;1977;52.274;10.518;2024-03-08T11:56:05;30.13;;;21.13;;
3924;SDS011;1977;52.274;10.518;2024-03-08T11:58:33;27.13;;;19.30;;
3924;SDS011;1977;52.274;10.518;2024-03-08T12:01:02;24.33;;;19.57;;
3924;SDS011;1977;52.274;10.518;2024-03-08T12:03:30;30.37;;;20.30;;
3924;SDS011;1977;52.274;10.518;2024-03-08T12:05:59;27.20;;;18.53;;
3924;SDS011;1977;52.274;10.518;2024-03-08T12:08:26;27.00;;;18.90;;
3924;SDS011;1977;52.274;10.518;2024-03-08T12:10:56;27.23;;;18.77;;
3924;SDS011;1977;52.274;10.518;2024-03-08T12:13:25;24.80;;;19.10;;
3924;SDS011;1977;52.274;10.518;2024-03-08T12:15:54;25.57;;;17.77;;
3924;SDS011;1977;52.274;10.518;2024-03-08T12:18:21;21.80;;;17.10;;
3924;SDS011;1977;52.274;10.518;2024-03-08T12:20:48;26.10;;;18.37;;
3924;SDS011;1977;52.274;10.518;2024-03-08T12:23:15;27.87;;;19.47;;
3924;SDS011;1977;52.274;10.518;2024-03-08T12:25:42;25.20;;;17.63;;
3924;SDS011;1977;52.274;10.518;2024-03-08T12:28:11;23.00;;;17.10;;
3924;SDS011;1977;52.274;10.518;2024-03-08T12:30:45;24.63;;;17.60;;
3924;SDS011;1977;52.274;10.518;2024-03-08T12:33:13;24.13;;;17.50;;
3924;SDS011;1977;52.274;10.518;2024-03-08T12:35:40;24.63;;;17.50;;
3924;SDS011;1977;52.274;10.518;2024-03-08T12:38:07;21.77;;;16.97;;
3924;SDS011;1977;52.274;10.518;2024-03-08T12:40:34;29.13;;;18.93;;
3924;SDS011;1977;52.274;10.518;2024-03-08T12:43:05;24.63;;;19.03;;
3924;SDS011;1977;52.274;10.518;2024-03-08T12:45:34;27.77;;;19.70;;
3924;SDS011;1977;52.274;10.518;2024-03-08T12:48:00;31.30;;;20.40;;
3924;SDS011;1977;52.274;10.518;2024-03-08T12:50:28;23.63;;;17.80;;
3924;SDS011;1977;52.274;10.518;2024-03-08T12:52:56;27.73;;;18.23;;
3924;SDS011;1977;52.274;10.518;2024-03-08T12:55:22;24.00;;;18.73;;
3924;SDS011;1977;52.274;10.518;2024-03-08T12:57:49;22.90;;;16.73;;
3924;SDS011;1977;52.274;10.518;2024-03-08T13:00:18;25.03;;;17.90;;
3924;SDS011;1977;52.274;10.518;2024-03-08T13:02:46;23.87;;;17.23;;
3924;SDS011;1977;52.274;10.518;2024-03-08T13:05:14;21.20;;;15.77;;
3924;SDS011;1977;52.274;10.518;2024-03-08T13:07:42;23.10;;;17.57;;
3924;SDS011;1977;52.274;10.518;2024-03-08T13:10:11;26.23;;;16.70;;
3924;SDS011;1977;52.274;10.518;2024-03-08T13:12:39;21.37;;;16.07;;
3924;SDS011;1977;52.274;10.518;2024-03-08T13:15:07;20.50;;;16.70;;
3924;SDS011;1977;52.274;10.518;2024-03-08T13:17:36;22.83;;;17.50;;
3924;SDS011;1977;52.274;10.518;2024-03-08T13:20:07;25.63;;;18.40;;
3924;SDS011;1977;52.274;10.518;2024-03-08T13:22:34;23.00;;;18.10;;
3924;SDS011;1977;52.274;10.518;2024-03-08T13:25:02;25.00;;;17.30;;
3924;SDS011;1977;52.274;10.518;2024-03-08T13:27:30;26.27;;;16.90;;
3924;SDS011;1977;52.274;10.518;2024-03-08T13:29:56;28.37;;;19.10;;
3924;SDS011;1977;52.274;10.518;2024-03-08T13:32:23;25.20;;;18.63;;
3924;SDS011;1977;52.274;10.518;2024-03-08T13:34:51;23.77;;;16.97;;
3924;SDS011;1977;52.274;10.518;2024-03-08T13:37:20;28.67;;;19.97;;
3924;SDS011;1977;52.274;10.518;2024-03-08T13:39:47;30.73;;;19.60;;
3924;SDS011;1977;52.274;10.518;2024-03-08T13:42:14;28.80;;;20.30;;
3924;SDS011;1977;52.274;10.518;2024-03-08T13:44:44;24.43;;;18.90;;
3924;SDS011;1977;52.274;10.518;2024-03-08T13:47:13;24.93;;;19.10;;
3924;SDS011;1977;52.274;10.518;2024-03-08T13:49:40;22.50;;;18.27;;
3924;SDS011;1977;52.274;10.518;2024-03-08T13:52:08;27.47;;;19.33;;
3924;SDS011;1977;52.274;10.518;2024-03-08T13:54:37;28.03;;;19.27;;
3924;SDS011;1977;52.274;10.518;2024-03-08T13:57:04;31.27;;;19.20;;
3924;SDS011;1977;52.274;10.518;2024-03-08T13:59:32;26.60;;;19.23;;
3924;SDS011;1977;52.274;10.518;2024-03-08T14:02:00;27.03;;;18.67;;
3924;SDS011;1977;52.274;10.518;2024-03-08T14:04:27;27.23;;;19.60;;
3924;SDS011;1977;52.274;10.518;2024-03-08T14:06:54;26.50;;;17.67;;
3924;SDS011;1977;52.274;10.518;2024-03-08T14:09:26;23.40;;;18.07;;
3924;SDS011;1977;52.274;10.518;2024-03-08T14:11:55;25.03;;;18.73;;
3924;SDS011;1977;52.274;10.518;2024-03-08T14:14:23;27.13;;;18.40;;
3924;SDS011;1977;52.274;10.518;2024-03-08T14:16:50;33.60;;;18.03;;
3924;SDS011;1977;52.274;10.518;2024-03-08T14:19:19;23.93;;;18.03;;
3924;SDS011;1977;52.274;10.518;2024-03-08T14:21:46;20.53;;;16.23;;
3924;SDS011;1977;52.274;10.518;2024-03-08T14:24:14;24.20;;;18.40;;
3924;SDS011;1977;52.274;10.518;2024-03-08T14:26:41;28.80;;;19.50;;
3924;SDS011;1977;52.274;10.518;2024-03-08T14:29:09;20.70;;;16.23;;
3924;SDS011;1977;52.274;10.518;2024-03-08T14:31:37;24.23;;;18.27;;
3924;SDS011;1977;52.274;10.518;2024-03-08T14:34:05;25.07;;;18.20;;
3924;SDS011;1977;52.274;10.518;2024-03-08T14:36:32;25.30;;;17.83;;
3924;SDS011;1977;52.274;10.518;2024-03-08T14:38:59;22.93;;;17.33;;